Mazie, KY

1:03 AM EST on February 13, 2016 (GMT -0500)
Keaton | | Change Station
CLOSE
Current Station
Personal Weather Station
Location: Keaton, KY
Elevation: 850 ft
Nearby Weather Stations

Elev 850 ft 37.96 °N, 82.98 °W | Updated 8 minutes ago

Overcast
Overcast
23.0 °F
Feels Like 16 °F
N
5.3
Wind Variable Wind from WSW

Today
High -- | Low -- °F
--% Chance of Precip.
Yesterday
High -- | Low -- °F
Precip. -- in
Pressure 30.22 in
Visibility 10.0 miles
Clouds Scattered Clouds 2300 ft
Scattered Clouds 4100 ft
Overcast 5500 ft
Windchill 16 °F
Dew Point 8 °F
Humidity 52%
Rainfall 0.00 in
Snow Depth Not available.
7:24 AM 6:07 PM
Waxing Crescent, 27% visible
METAR KSJS 130555Z AUTO 32011G18KT 260V350 10SM SCT023 SCT041 OVC055 M05/M11 A3022 RMK AO2 T10471107 11007 21047
Pressure 30.22 in
Visibility 10.0 miles
Clouds Scattered Clouds 2300 ft
Scattered Clouds 4100 ft
Overcast 5500 ft
Windchill 16 °F
Dew Point 8 °F
Humidity 52%
Rainfall 0.00 in
Snow Depth Not available.
7:24 AM 6:07 PM
Waxing Crescent, 27% visible
METAR KSJS 130555Z AUTO 32011G18KT 260V350 10SM SCT023 SCT041 OVC055 M05/M11 A3022 RMK AO2 T10471107 11007 21047

10-Day Weather Forecast

Almanac

Astronomy

Feb. 13, 2016 Rise Set
Actual Time
Civil Twilight
Nautical Twilight
Astronomical Twilight
Moon
Length of Visible Light
Length of Day
Tomorrow will be .
, % of the Moon is Illuminated

Today's Extremes

State Highs State Lows

Community

WunderPhotos

Upload Photos

1,892,508 photos uploaded!

WunderBlog® & News

Nearby

Air Quality

  Air Quality AQ Index Pollutant
Not available.

Snow Depth

Station Depth Elevation

Earthquake Activity

City Distance Mag. Time & Date
Minimum magnitude displayed is 2.5.

Coastal Water Temperatures

Place Temperature

Stations

Nearby Weather Stations

Station Location Temp. Windchill Dew Point Humidity Wind Precip. Elev Updated Type
                   

Watches & Warnings

There are currently no watches in effect.